sensor_id;sensor_type;location;lat;lon;timestamp;P1;durP1;ratioP1;P2;durP2;ratioP2
8281;SDS011;25606;42.686;23.136;2022-08-06T00:02:23;4.90;;;4.07;;
8281;SDS011;25606;42.686;23.136;2022-08-06T00:04:51;4.23;;;3.87;;
8281;SDS011;25606;42.686;23.136;2022-08-06T00:07:19;5.07;;;4.20;;
8281;SDS011;25606;42.686;23.136;2022-08-06T00:09:46;4.10;;;3.80;;
8281;SDS011;25606;42.686;23.136;2022-08-06T00:12:13;3.97;;;3.67;;
8281;SDS011;25606;42.686;23.136;2022-08-06T00:14:41;4.47;;;4.07;;
8281;SDS011;25606;42.686;23.136;2022-08-06T00:17:08;4.07;;;3.70;;
8281;SDS011;25606;42.686;23.136;2022-08-06T00:19:35;4.73;;;4.23;;
8281;SDS011;25606;42.686;23.136;2022-08-06T00:22:04;5.87;;;4.43;;
8281;SDS011;25606;42.686;23.136;2022-08-06T00:24:31;3.93;;;3.63;;
8281;SDS011;25606;42.686;23.136;2022-08-06T00:26:58;3.93;;;3.63;;
8281;SDS011;25606;42.686;23.136;2022-08-06T00:29:25;3.97;;;3.67;;
8281;SDS011;25606;42.686;23.136;2022-08-06T00:31:52;4.47;;;4.07;;
8281;SDS011;25606;42.686;23.136;2022-08-06T00:34:20;5.27;;;4.27;;
8281;SDS011;25606;42.686;23.136;2022-08-06T00:36:47;4.30;;;3.90;;
8281;SDS011;25606;42.686;23.136;2022-08-06T00:39:15;5.93;;;4.13;;
8281;SDS011;25606;42.686;23.136;2022-08-06T00:41:43;5.73;;;4.00;;
8281;SDS011;25606;42.686;23.136;2022-08-06T00:44:10;4.90;;;4.50;;
8281;SDS011;25606;42.686;23.136;2022-08-06T00:46:38;4.80;;;4.37;;
8281;SDS011;25606;42.686;23.136;2022-08-06T00:49:05;4.70;;;4.27;;
8281;SDS011;25606;42.686;23.136;2022-08-06T00:51:33;4.73;;;4.33;;
8281;SDS011;25606;42.686;23.136;2022-08-06T00:54:01;4.80;;;4.40;;
8281;SDS011;25606;42.686;23.136;2022-08-06T00:56:29;4.70;;;4.30;;
8281;SDS011;25606;42.686;23.136;2022-08-06T00:58:56;5.40;;;4.50;;
8281;SDS011;25606;42.686;23.136;2022-08-06T01:01:24;4.40;;;4.00;;
8281;SDS011;25606;42.686;23.136;2022-08-06T01:03:51;6.77;;;4.77;;
8281;SDS011;25606;42.686;23.136;2022-08-06T01:06:18;7.27;;;4.07;;
8281;SDS011;25606;42.686;23.136;2022-08-06T01:08:45;4.77;;;4.30;;
8281;SDS011;25606;42.686;23.136;2022-08-06T01:11:13;4.67;;;4.20;;
8281;SDS011;25606;42.686;23.136;2022-08-06T01:13:41;4.07;;;3.77;;
8281;SDS011;25606;42.686;23.136;2022-08-06T01:16:10;4.87;;;4.47;;
8281;SDS011;25606;42.686;23.136;2022-08-06T01:18:40;5.03;;;4.03;;
8281;SDS011;25606;42.686;23.136;2022-08-06T01:21:10;4.50;;;4.10;;
8281;SDS011;25606;42.686;23.136;2022-08-06T01:23:44;4.57;;;4.17;;
8281;SDS011;25606;42.686;23.136;2022-08-06T01:26:22;4.87;;;4.47;;
8281;SDS011;25606;42.686;23.136;2022-08-06T01:28:53;5.00;;;4.27;;
8281;SDS011;25606;42.686;23.136;2022-08-06T01:31:24;4.93;;;4.47;;
8281;SDS011;25606;42.686;23.136;2022-08-06T01:33:54;4.60;;;4.20;;
8281;SDS011;25606;42.686;23.136;2022-08-06T01:36:24;5.63;;;4.07;;
8281;SDS011;25606;42.686;23.136;2022-08-06T01:38:54;4.90;;;4.50;;
8281;SDS011;25606;42.686;23.136;2022-08-06T01:41:23;4.57;;;4.17;;
8281;SDS011;25606;42.686;23.136;2022-08-06T01:44:06;4.47;;;4.07;;
8281;SDS011;25606;42.686;23.136;2022-08-06T01:46:35;4.97;;;4.47;;
8281;SDS011;25606;42.686;23.136;2022-08-06T01:49:03;4.30;;;4.00;;
8281;SDS011;25606;42.686;23.136;2022-08-06T01:51:31;4.73;;;4.33;;
8281;SDS011;25606;42.686;23.136;2022-08-06T01:54:00;4.60;;;4.20;;
8281;SDS011;25606;42.686;23.136;2022-08-06T01:56:28;4.63;;;4.10;;
8281;SDS011;25606;42.686;23.136;2022-08-06T01:58:56;5.77;;;4.43;;
8281;SDS011;25606;42.686;23.136;2022-08-06T02:01:26;4.37;;;3.97;;
8281;SDS011;25606;42.686;23.136;2022-08-06T02:03:54;4.80;;;4.30;;
8281;SDS011;25606;42.686;23.136;2022-08-06T02:06:24;5.33;;;4.83;;
8281;SDS011;25606;42.686;23.136;2022-08-06T02:08:52;6.60;;;4.40;;
8281;SDS011;25606;42.686;23.136;2022-08-06T02:11:20;4.77;;;4.30;;
8281;SDS011;25606;42.686;23.136;2022-08-06T02:13:47;4.63;;;4.23;;
8281;SDS011;25606;42.686;23.136;2022-08-06T02:16:15;4.93;;;4.43;;
8281;SDS011;25606;42.686;23.136;2022-08-06T02:18:45;5.20;;;4.33;;
8281;SDS011;25606;42.686;23.136;2022-08-06T02:21:15;5.07;;;4.57;;
8281;SDS011;25606;42.686;23.136;2022-08-06T02:23:43;5.30;;;4.80;;
8281;SDS011;25606;42.686;23.136;2022-08-06T02:26:10;6.03;;;4.60;;
8281;SDS011;25606;42.686;23.136;2022-08-06T02:28:38;5.20;;;4.70;;
8281;SDS011;25606;42.686;23.136;2022-08-06T02:31:06;5.33;;;4.83;;
8281;SDS011;25606;42.686;23.136;2022-08-06T02:33:34;4.67;;;4.30;;
8281;SDS011;25606;42.686;23.136;2022-08-06T02:36:03;5.23;;;4.73;;
8281;SDS011;25606;42.686;23.136;2022-08-06T02:38:33;4.80;;;4.40;;
8281;SDS011;25606;42.686;23.136;2022-08-06T02:41:05;5.63;;;4.57;;
8281;SDS011;25606;42.686;23.136;2022-08-06T02:43:37;5.10;;;4.70;;
8281;SDS011;25606;42.686;23.136;2022-08-06T02:46:07;4.77;;;4.33;;
8281;SDS011;25606;42.686;23.136;2022-08-06T02:48:39;5.50;;;4.77;;
8281;SDS011;25606;42.686;23.136;2022-08-06T02:51:10;6.13;;;4.83;;
8281;SDS011;25606;42.686;23.136;2022-08-06T02:53:42;5.10;;;4.70;;
8281;SDS011;25606;42.686;23.136;2022-08-06T02:56:11;6.83;;;5.00;;
8281;SDS011;25606;42.686;23.136;2022-08-06T02:58:40;5.20;;;4.70;;
8281;SDS011;25606;42.686;23.136;2022-08-06T03:01:09;6.50;;;5.13;;
8281;SDS011;25606;42.686;23.136;2022-08-06T03:03:37;5.73;;;4.37;;
8281;SDS011;25606;42.686;23.136;2022-08-06T03:06:05;4.93;;;4.30;;
8281;SDS011;25606;42.686;23.136;2022-08-06T03:08:35;4.37;;;3.97;;
8281;SDS011;25606;42.686;23.136;2022-08-06T03:11:02;4.93;;;4.33;;
8281;SDS011;25606;42.686;23.136;2022-08-06T03:13:30;5.10;;;4.47;;
8281;SDS011;25606;42.686;23.136;2022-08-06T03:15:58;5.60;;;5.00;;
8281;SDS011;25606;42.686;23.136;2022-08-06T03:18:26;5.73;;;4.10;;
8281;SDS011;25606;42.686;23.136;2022-08-06T03:20:54;5.13;;;4.67;;
8281;SDS011;25606;42.686;23.136;2022-08-06T03:23:22;5.60;;;4.87;;
8281;SDS011;25606;42.686;23.136;2022-08-06T03:25:51;5.20;;;4.80;;
8281;SDS011;25606;42.686;23.136;2022-08-06T03:28:18;4.80;;;4.30;;
8281;SDS011;25606;42.686;23.136;2022-08-06T03:30:46;4.90;;;4.50;;
8281;SDS011;25606;42.686;23.136;2022-08-06T03:33:14;4.13;;;3.80;;
8281;SDS011;25606;42.686;23.136;2022-08-06T03:35:41;5.63;;;4.10;;
8281;SDS011;25606;42.686;23.136;2022-08-06T03:38:09;4.80;;;4.30;;
8281;SDS011;25606;42.686;23.136;2022-08-06T03:40:37;4.67;;;4.30;;
8281;SDS011;25606;42.686;23.136;2022-08-06T03:43:06;4.70;;;4.20;;
8281;SDS011;25606;42.686;23.136;2022-08-06T03:45:35;5.63;;;4.50;;
8281;SDS011;25606;42.686;23.136;2022-08-06T03:48:03;5.13;;;4.20;;
8281;SDS011;25606;42.686;23.136;2022-08-06T03:50:32;5.63;;;4.70;;
8281;SDS011;25606;42.686;23.136;2022-08-06T03:53:00;5.83;;;4.83;;
8281;SDS011;25606;42.686;23.136;2022-08-06T03:55:29;5.00;;;4.50;;
8281;SDS011;25606;42.686;23.136;2022-08-06T03:57:57;5.10;;;4.60;;
8281;SDS011;25606;42.686;23.136;2022-08-06T04:00:29;8.27;;;4.77;;
8281;SDS011;25606;42.686;23.136;2022-08-06T04:02:57;6.57;;;4.87;;
8281;SDS011;25606;42.686;23.136;2022-08-06T04:05:26;7.40;;;5.17;;
8281;SDS011;25606;42.686;23.136;2022-08-06T04:07:54;5.13;;;4.63;;
8281;SDS011;25606;42.686;23.136;2022-08-06T04:10:23;5.03;;;4.60;;
8281;SDS011;25606;42.686;23.136;2022-08-06T04:12:50;5.60;;;5.10;;
8281;SDS011;25606;42.686;23.136;2022-08-06T04:15:18;5.27;;;4.73;;
8281;SDS011;25606;42.686;23.136;2022-08-06T04:17:47;5.17;;;4.77;;
8281;SDS011;25606;42.686;23.136;2022-08-06T04:20:16;4.97;;;4.17;;
8281;SDS011;25606;42.686;23.136;2022-08-06T04:22:44;5.20;;;4.73;;
8281;SDS011;25606;42.686;23.136;2022-08-06T04:25:11;4.87;;;4.50;;
8281;SDS011;25606;42.686;23.136;2022-08-06T04:27:39;6.23;;;4.73;;
8281;SDS011;25606;42.686;23.136;2022-08-06T04:30:08;4.90;;;4.50;;
8281;SDS011;25606;42.686;23.136;2022-08-06T04:32:35;5.10;;;4.70;;
8281;SDS011;25606;42.686;23.136;2022-08-06T04:35:06;5.37;;;4.87;;
8281;SDS011;25606;42.686;23.136;2022-08-06T04:37:34;6.03;;;5.13;;
8281;SDS011;25606;42.686;23.136;2022-08-06T04:40:02;5.47;;;4.90;;
8281;SDS011;25606;42.686;23.136;2022-08-06T04:42:30;5.20;;;4.80;;
8281;SDS011;25606;42.686;23.136;2022-08-06T04:44:57;5.07;;;4.60;;
8281;SDS011;25606;42.686;23.136;2022-08-06T04:47:24;4.63;;;4.33;;
8281;SDS011;25606;42.686;23.136;2022-08-06T04:49:52;5.83;;;4.80;;
8281;SDS011;25606;42.686;23.136;2022-08-06T04:52:22;6.13;;;5.00;;
8281;SDS011;25606;42.686;23.136;2022-08-06T04:54:50;4.73;;;4.23;;
8281;SDS011;25606;42.686;23.136;2022-08-06T04:57:17;5.30;;;4.90;;
8281;SDS011;25606;42.686;23.136;2022-08-06T04:59:44;4.83;;;4.40;;
8281;SDS011;25606;42.686;23.136;2022-08-06T05:02:12;5.00;;;4.60;;
8281;SDS011;25606;42.686;23.136;2022-08-06T05:04:39;5.20;;;4.70;;
8281;SDS011;25606;42.686;23.136;2022-08-06T05:07:10;6.87;;;4.97;;
8281;SDS011;25606;42.686;23.136;2022-08-06T05:09:39;9.13;;;4.80;;
8281;SDS011;25606;42.686;23.136;2022-08-06T05:12:10;5.27;;;4.77;;
8281;SDS011;25606;42.686;23.136;2022-08-06T05:14:41;13.00;;;5.10;;
8281;SDS011;25606;42.686;23.136;2022-08-06T05:17:10;6.07;;;5.00;;
8281;SDS011;25606;42.686;23.136;2022-08-06T05:19:43;5.57;;;4.50;;
8281;SDS011;25606;42.686;23.136;2022-08-06T05:22:10;5.63;;;5.10;;
8281;SDS011;25606;42.686;23.136;2022-08-06T05:24:40;14.43;;;5.50;;
8281;SDS011;25606;42.686;23.136;2022-08-06T05:27:09;5.10;;;4.60;;
8281;SDS011;25606;42.686;23.136;2022-08-06T05:29:36;5.03;;;4.50;;
8281;SDS011;25606;42.686;23.136;2022-08-06T05:32:06;5.07;;;4.57;;
8281;SDS011;25606;42.686;23.136;2022-08-06T05:34:33;5.20;;;4.80;;
8281;SDS011;25606;42.686;23.136;2022-08-06T05:37:01;5.27;;;4.83;;
8281;SDS011;25606;42.686;23.136;2022-08-06T05:39:28;5.20;;;4.80;;
8281;SDS011;25606;42.686;23.136;2022-08-06T05:41:56;7.63;;;5.00;;
8281;SDS011;25606;42.686;23.136;2022-08-06T05:44:24;5.23;;;4.73;;
8281;SDS011;25606;42.686;23.136;2022-08-06T05:46:52;6.57;;;4.87;;
8281;SDS011;25606;42.686;23.136;2022-08-06T05:49:20;5.67;;;4.50;;
8281;SDS011;25606;42.686;23.136;2022-08-06T05:51:50;6.37;;;4.50;;
8281;SDS011;25606;42.686;23.136;2022-08-06T05:54:19;4.97;;;4.57;;
8281;SDS011;25606;42.686;23.136;2022-08-06T05:56:49;4.70;;;4.30;;
8281;SDS011;25606;42.686;23.136;2022-08-06T05:59:19;4.87;;;4.47;;
8281;SDS011;25606;42.686;23.136;2022-08-06T06:01:47;5.27;;;4.73;;
8281;SDS011;25606;42.686;23.136;2022-08-06T06:04:16;4.87;;;4.47;;
8281;SDS011;25606;42.686;23.136;2022-08-06T06:06:44;5.33;;;4.83;;
8281;SDS011;25606;42.686;23.136;2022-08-06T06:09:11;6.40;;;5.80;;
8281;SDS011;25606;42.686;23.136;2022-08-06T06:11:39;5.57;;;5.07;;
8281;SDS011;25606;42.686;23.136;2022-08-06T06:14:08;6.13;;;5.53;;
8281;SDS011;25606;42.686;23.136;2022-08-06T06:16:46;115.57;;;93.50;;
8281;SDS011;25606;42.686;23.136;2022-08-06T06:19:19;9.47;;;7.37;;
8281;SDS011;25606;42.686;23.136;2022-08-06T06:21:51;5.63;;;5.13;;
8281;SDS011;25606;42.686;23.136;2022-08-06T06:24:22;12.37;;;11.03;;
8281;SDS011;25606;42.686;23.136;2022-08-06T06:26:55;13.73;;;12.33;;
8281;SDS011;25606;42.686;23.136;2022-08-06T06:32:08;5.00;;;4.60;;
8281;SDS011;25606;42.686;23.136;2022-08-06T06:34:42;12.70;;;11.48;;
8281;SDS011;25606;42.686;23.136;2022-08-06T06:37:14;10.00;;;6.80;;
8281;SDS011;25606;42.686;23.136;2022-08-06T06:39:45;4.60;;;4.20;;
8281;SDS011;25606;42.686;23.136;2022-08-06T06:42:15;9.68;;;6.88;;
8281;SDS011;25606;42.686;23.136;2022-08-06T06:44:44;10.38;;;5.90;;
8281;SDS011;25606;42.686;23.136;2022-08-06T06:47:16;8.98;;;5.75;;
8281;SDS011;25606;42.686;23.136;2022-08-06T06:49:44;9.43;;;5.35;;
8281;SDS011;25606;42.686;23.136;2022-08-06T06:52:14;10.27;;;6.35;;
8281;SDS011;25606;42.686;23.136;2022-08-06T06:54:44;15.73;;;6.43;;
8281;SDS011;25606;42.686;23.136;2022-08-06T06:57:15;11.98;;;5.75;;
8281;SDS011;25606;42.686;23.136;2022-08-06T06:59:44;14.40;;;7.35;;
8281;SDS011;25606;42.686;23.136;2022-08-06T07:02:14;16.80;;;9.70;;
8281;SDS011;25606;42.686;23.136;2022-08-06T07:04:44;22.13;;;13.48;;
8281;SDS011;25606;42.686;23.136;2022-08-06T07:07:12;24.55;;;21.33;;
8281;SDS011;25606;42.686;23.136;2022-08-06T07:09:40;27.70;;;23.30;;
8281;SDS011;25606;42.686;23.136;2022-08-06T07:12:09;42.30;;;37.40;;
8281;SDS011;25606;42.686;23.136;2022-08-06T07:14:37;37.95;;;31.92;;
8281;SDS011;25606;42.686;23.136;2022-08-06T07:17:05;41.53;;;37.53;;
8281;SDS011;25606;42.686;23.136;2022-08-06T07:19:33;59.45;;;53.33;;
8281;SDS011;25606;42.686;23.136;2022-08-06T07:22:02;68.32;;;60.78;;
8281;SDS011;25606;42.686;23.136;2022-08-06T07:24:31;61.10;;;55.00;;
8281;SDS011;25606;42.686;23.136;2022-08-06T07:27:00;58.45;;;53.17;;
8281;SDS011;25606;42.686;23.136;2022-08-06T07:29:28;62.75;;;56.80;;
8281;SDS011;25606;42.686;23.136;2022-08-06T07:31:56;79.22;;;71.25;;
8281;SDS011;25606;42.686;23.136;2022-08-06T07:34:23;83.82;;;75.88;;
8281;SDS011;25606;42.686;23.136;2022-08-06T07:36:51;86.82;;;77.88;;
8281;SDS011;25606;42.686;23.136;2022-08-06T07:39:22;62.95;;;56.90;;
8281;SDS011;25606;42.686;23.136;2022-08-06T07:41:51;69.38;;;62.85;;
8281;SDS011;25606;42.686;23.136;2022-08-06T07:44:19;100.30;;;89.80;;
8281;SDS011;25606;42.686;23.136;2022-08-06T07:46:48;61.42;;;56.33;;
8281;SDS011;25606;42.686;23.136;2022-08-06T07:49:17;27.77;;;22.73;;
8281;SDS011;25606;42.686;23.136;2022-08-06T07:51:45;16.50;;;10.38;;
8281;SDS011;25606;42.686;23.136;2022-08-06T07:54:13;36.20;;;31.92;;
8281;SDS011;25606;42.686;23.136;2022-08-06T07:56:42;48.60;;;43.50;;
8281;SDS011;25606;42.686;23.136;2022-08-06T07:59:10;59.75;;;54.40;;
8281;SDS011;25606;42.686;23.136;2022-08-06T08:01:37;58.15;;;52.30;;
8281;SDS011;25606;42.686;23.136;2022-08-06T08:04:05;61.90;;;56.10;;
8281;SDS011;25606;42.686;23.136;2022-08-06T08:06:50;98.57;;;89.78;;
8281;SDS011;25606;42.686;23.136;2022-08-06T08:09:18;115.40;;;104.47;;
8281;SDS011;25606;42.686;23.136;2022-08-06T08:11:47;108.80;;;98.35;;
8281;SDS011;25606;42.686;23.136;2022-08-06T08:14:16;128.85;;;116.68;;
8281;SDS011;25606;42.686;23.136;2022-08-06T08:16:43;92.07;;;82.50;;
8281;SDS011;25606;42.686;23.136;2022-08-06T08:19:23;86.30;;;78.55;;
8281;SDS011;25606;42.686;23.136;2022-08-06T08:21:52;106.57;;;96.63;;
8281;SDS011;25606;42.686;23.136;2022-08-06T08:24:21;28.50;;;25.15;;
8281;SDS011;25606;42.686;23.136;2022-08-06T08:26:50;29.00;;;23.65;;
8281;SDS011;25606;42.686;23.136;2022-08-06T08:29:18;28.23;;;23.95;;
8281;SDS011;25606;42.686;23.136;2022-08-06T08:31:45;13.02;;;8.60;;
8281;SDS011;25606;42.686;23.136;2022-08-06T08:34:13;10.55;;;5.18;;
8281;SDS011;25606;42.686;23.136;2022-08-06T08:36:40;9.65;;;5.22;;
8281;SDS011;25606;42.686;23.136;2022-08-06T08:39:08;10.70;;;4.55;;
8281;SDS011;25606;42.686;23.136;2022-08-06T08:41:37;8.00;;;4.30;;
8281;SDS011;25606;42.686;23.136;2022-08-06T08:44:07;7.95;;;4.65;;
8281;SDS011;25606;42.686;23.136;2022-08-06T08:46:37;8.60;;;4.40;;
8281;SDS011;25606;42.686;23.136;2022-08-06T08:49:05;6.78;;;4.03;;
8281;SDS011;25606;42.686;23.136;2022-08-06T08:51:33;8.05;;;3.97;;
8281;SDS011;25606;42.686;23.136;2022-08-06T08:54:01;7.20;;;4.60;;
8281;SDS011;25606;42.686;23.136;2022-08-06T08:56:29;23.88;;;5.70;;
8281;SDS011;25606;42.686;23.136;2022-08-06T08:58:58;11.57;;;4.65;;
8281;SDS011;25606;42.686;23.136;2022-08-06T09:01:27;8.15;;;5.10;;
8281;SDS011;25606;42.686;23.136;2022-08-06T09:03:54;162.32;;;13.70;;
8281;SDS011;25606;42.686;23.136;2022-08-06T09:06:21;5.25;;;3.70;;
8281;SDS011;25606;42.686;23.136;2022-08-06T09:08:49;8.32;;;3.88;;
8281;SDS011;25606;42.686;23.136;2022-08-06T09:11:16;9.50;;;4.72;;
8281;SDS011;25606;42.686;23.136;2022-08-06T09:13:43;7.25;;;3.67;;
8281;SDS011;25606;42.686;23.136;2022-08-06T09:16:11;5.47;;;3.72;;
8281;SDS011;25606;42.686;23.136;2022-08-06T09:18:41;4.30;;;3.78;;
8281;SDS011;25606;42.686;23.136;2022-08-06T09:21:08;6.25;;;3.72;;
8281;SDS011;25606;42.686;23.136;2022-08-06T09:23:36;5.50;;;4.00;;
8281;SDS011;25606;42.686;23.136;2022-08-06T09:26:05;7.00;;;4.22;;
8281;SDS011;25606;42.686;23.136;2022-08-06T09:28:33;5.95;;;4.15;;
8281;SDS011;25606;42.686;23.136;2022-08-06T09:31:02;5.72;;;3.78;;
8281;SDS011;25606;42.686;23.136;2022-08-06T09:33:30;7.10;;;3.75;;
8281;SDS011;25606;42.686;23.136;2022-08-06T09:35:59;6.43;;;4.40;;
8281;SDS011;25606;42.686;23.136;2022-08-06T09:38:27;7.18;;;4.43;;
8281;SDS011;25606;42.686;23.136;2022-08-06T09:41:01;7.25;;;4.53;;
8281;SDS011;25606;42.686;23.136;2022-08-06T09:43:29;11.88;;;5.32;;
8281;SDS011;25606;42.686;23.136;2022-08-06T09:45:56;8.13;;;4.55;;
8281;SDS011;25606;42.686;23.136;2022-08-06T09:48:23;8.38;;;4.72;;
8281;SDS011;25606;42.686;23.136;2022-08-06T09:50:50;8.80;;;4.88;;
8281;SDS011;25606;42.686;23.136;2022-08-06T09:53:19;8.70;;;4.70;;
8281;SDS011;25606;42.686;23.136;2022-08-06T09:55:48;7.22;;;4.72;;
8281;SDS011;25606;42.686;23.136;2022-08-06T09:58:25;5.50;;;3.88;;
8281;SDS011;25606;42.686;23.136;2022-08-06T10:00:52;6.60;;;4.30;;
8281;SDS011;25606;42.686;23.136;2022-08-06T10:03:20;7.70;;;4.82;;
8281;SDS011;25606;42.686;23.136;2022-08-06T10:05:50;5.07;;;4.35;;
8281;SDS011;25606;42.686;23.136;2022-08-06T10:08:30;4.43;;;4.05;;
8281;SDS011;25606;42.686;23.136;2022-08-06T10:10:57;7.32;;;4.50;;
8281;SDS011;25606;42.686;23.136;2022-08-06T10:13:28;6.60;;;4.30;;
8281;SDS011;25606;42.686;23.136;2022-08-06T10:15:56;5.45;;;4.20;;
8281;SDS011;25606;42.686;23.136;2022-08-06T10:18:30;4.82;;;3.95;;
8281;SDS011;25606;42.686;23.136;2022-08-06T10:21:01;9.45;;;4.63;;
8281;SDS011;25606;42.686;23.136;2022-08-06T10:23:35;5.55;;;4.47;;
8281;SDS011;25606;42.686;23.136;2022-08-06T10:26:04;5.75;;;4.35;;
8281;SDS011;25606;42.686;23.136;2022-08-06T10:28:32;5.28;;;4.15;;
8281;SDS011;25606;42.686;23.136;2022-08-06T10:31:01;6.75;;;4.57;;
8281;SDS011;25606;42.686;23.136;2022-08-06T10:33:31;5.32;;;4.25;;
8281;SDS011;25606;42.686;23.136;2022-08-06T10:36:00;5.68;;;4.38;;
8281;SDS011;25606;42.686;23.136;2022-08-06T10:38:33;5.80;;;4.50;;
8281;SDS011;25606;42.686;23.136;2022-08-06T10:41:02;6.88;;;4.15;;
8281;SDS011;25606;42.686;23.136;2022-08-06T10:43:30;7.25;;;4.70;;
8281;SDS011;25606;42.686;23.136;2022-08-06T10:45:57;7.15;;;4.43;;
8281;SDS011;25606;42.686;23.136;2022-08-06T10:48:25;6.68;;;4.32;;
8281;SDS011;25606;42.686;23.136;2022-08-06T10:50:52;7.13;;;4.35;;
8281;SDS011;25606;42.686;23.136;2022-08-06T10:53:19;9.20;;;5.53;;
8281;SDS011;25606;42.686;23.136;2022-08-06T10:55:49;7.78;;;5.10;;
8281;SDS011;25606;42.686;23.136;2022-08-06T10:58:16;12.15;;;5.85;;
8281;SDS011;25606;42.686;23.136;2022-08-06T11:00:43;8.85;;;4.97;;
8281;SDS011;25606;42.686;23.136;2022-08-06T11:03:13;14.82;;;6.13;;
8281;SDS011;25606;42.686;23.136;2022-08-06T11:05:41;12.27;;;6.53;;
8281;SDS011;25606;42.686;23.136;2022-08-06T11:08:23;8.65;;;5.05;;
8281;SDS011;25606;42.686;23.136;2022-08-06T11:10:58;7.13;;;4.25;;
8281;SDS011;25606;42.686;23.136;2022-08-06T11:13:31;9.48;;;4.68;;
8281;SDS011;25606;42.686;23.136;2022-08-06T11:15:59;8.38;;;4.65;;
8281;SDS011;25606;42.686;23.136;2022-08-06T11:18:26;8.98;;;4.88;;
8281;SDS011;25606;42.686;23.136;2022-08-06T11:20:54;13.55;;;5.93;;
8281;SDS011;25606;42.686;23.136;2022-08-06T11:23:29;10.52;;;5.30;;
8281;SDS011;25606;42.686;23.136;2022-08-06T11:25:58;13.98;;;9.77;;
8281;SDS011;25606;42.686;23.136;2022-08-06T11:31:28;9.02;;;4.53;;
8281;SDS011;25606;42.686;23.136;2022-08-06T11:33:59;8.40;;;4.05;;
8281;SDS011;25606;42.686;23.136;2022-08-06T11:36:27;8.70;;;4.57;;
8281;SDS011;25606;42.686;23.136;2022-08-06T11:38:58;6.10;;;4.28;;
8281;SDS011;25606;42.686;23.136;2022-08-06T11:41:27;4.80;;;4.00;;
8281;SDS011;25606;42.686;23.136;2022-08-06T11:44:04;4.55;;;4.00;;
8281;SDS011;25606;42.686;23.136;2022-08-06T11:46:32;5.07;;;4.28;;
8281;SDS011;25606;42.686;23.136;2022-08-06T11:51:47;5.50;;;4.28;;
8281;SDS011;25606;42.686;23.136;2022-08-06T11:54:15;4.80;;;4.30;;
8281;SDS011;25606;42.686;23.136;2022-08-06T11:59:31;4.47;;;3.95;;
8281;SDS011;25606;42.686;23.136;2022-08-06T12:02:00;5.25;;;4.65;;
8281;SDS011;25606;42.686;23.136;2022-08-06T12:07:13;4.53;;;4.15;;
8281;SDS011;25606;42.686;23.136;2022-08-06T12:09:40;4.95;;;4.43;;
8281;SDS011;25606;42.686;23.136;2022-08-06T12:14:51;4.97;;;4.55;;
8281;SDS011;25606;42.686;23.136;2022-08-06T12:17:19;8.48;;;4.60;;
8281;SDS011;25606;42.686;23.136;2022-08-06T12:19:47;4.78;;;4.35;;
8281;SDS011;25606;42.686;23.136;2022-08-06T12:22:16;7.60;;;4.97;;
8281;SDS011;25606;42.686;23.136;2022-08-06T12:24:44;8.35;;;5.03;;
8281;SDS011;25606;42.686;23.136;2022-08-06T12:27:12;8.13;;;4.53;;
8281;SDS011;25606;42.686;23.136;2022-08-06T12:29:40;5.35;;;4.85;;
8281;SDS011;25606;42.686;23.136;2022-08-06T12:32:21;4.72;;;4.38;;
8281;SDS011;25606;42.686;23.136;2022-08-06T12:34:48;4.57;;;4.22;;
8281;SDS011;25606;42.686;23.136;2022-08-06T12:37:16;4.80;;;4.40;;
8281;SDS011;25606;42.686;23.136;2022-08-06T12:39:44;4.22;;;3.92;;
8281;SDS011;25606;42.686;23.136;2022-08-06T12:42:29;6.13;;;4.85;;
8281;SDS011;25606;42.686;23.136;2022-08-06T12:44:56;7.00;;;5.00;;
8281;SDS011;25606;42.686;23.136;2022-08-06T12:47:25;5.78;;;4.60;;
8281;SDS011;25606;42.686;23.136;2022-08-06T12:49:52;7.05;;;4.38;;
8281;SDS011;25606;42.686;23.136;2022-08-06T12:52:20;9.63;;;5.20;;
8281;SDS011;25606;42.686;23.136;2022-08-06T12:54:49;8.85;;;5.20;;
8281;SDS011;25606;42.686;23.136;2022-08-06T12:57:19;12.90;;;7.65;;
8281;SDS011;25606;42.686;23.136;2022-08-06T12:59:47;21.08;;;18.60;;
8281;SDS011;25606;42.686;23.136;2022-08-06T13:02:14;36.75;;;32.70;;
8281;SDS011;25606;42.686;23.136;2022-08-06T13:04:44;31.23;;;28.30;;
8281;SDS011;25606;42.686;23.136;2022-08-06T13:07:13;9.35;;;7.35;;
8281;SDS011;25606;42.686;23.136;2022-08-06T13:09:41;21.67;;;18.27;;
8281;SDS011;25606;42.686;23.136;2022-08-06T13:12:11;23.67;;;19.75;;
8281;SDS011;25606;42.686;23.136;2022-08-06T13:14:47;47.25;;;42.10;;
8281;SDS011;25606;42.686;23.136;2022-08-06T13:17:15;56.95;;;51.83;;
8281;SDS011;25606;42.686;23.136;2022-08-06T13:19:51;52.90;;;45.35;;
8281;SDS011;25606;42.686;23.136;2022-08-06T13:22:19;42.55;;;38.45;;
8281;SDS011;25606;42.686;23.136;2022-08-06T13:24:46;18.60;;;15.40;;
8281;SDS011;25606;42.686;23.136;2022-08-06T13:27:13;11.45;;;5.70;;
8281;SDS011;25606;42.686;23.136;2022-08-06T13:29:59;8.80;;;5.35;;
8281;SDS011;25606;42.686;23.136;2022-08-06T13:32:27;11.32;;;5.55;;
8281;SDS011;25606;42.686;23.136;2022-08-06T13:34:56;8.35;;;4.95;;
8281;SDS011;25606;42.686;23.136;2022-08-06T13:40:10;20.95;;;16.58;;
8281;SDS011;25606;42.686;23.136;2022-08-06T13:42:47;33.33;;;29.30;;
8281;SDS011;25606;42.686;23.136;2022-08-06T13:45:18;64.03;;;58.60;;
8281;SDS011;25606;42.686;23.136;2022-08-06T13:47:45;76.00;;;69.40;;
8281;SDS011;25606;42.686;23.136;2022-08-06T13:50:16;49.85;;;45.80;;
8281;SDS011;25606;42.686;23.136;2022-08-06T13:52:43;29.58;;;24.70;;
8281;SDS011;25606;42.686;23.136;2022-08-06T13:55:11;9.57;;;5.68;;
8281;SDS011;25606;42.686;23.136;2022-08-06T13:57:38;6.93;;;5.25;;
8281;SDS011;25606;42.686;23.136;2022-08-06T14:00:06;5.45;;;4.90;;
8281;SDS011;25606;42.686;23.136;2022-08-06T14:02:34;6.35;;;5.13;;
8281;SDS011;25606;42.686;23.136;2022-08-06T14:05:01;5.70;;;5.20;;
8281;SDS011;25606;42.686;23.136;2022-08-06T14:07:30;5.95;;;5.30;;
8281;SDS011;25606;42.686;23.136;2022-08-06T14:09:58;8.55;;;5.00;;
8281;SDS011;25606;42.686;23.136;2022-08-06T14:12:25;5.00;;;4.50;;
8281;SDS011;25606;42.686;23.136;2022-08-06T14:14:52;4.88;;;4.50;;
8281;SDS011;25606;42.686;23.136;2022-08-06T14:17:20;7.28;;;5.30;;
8281;SDS011;25606;42.686;23.136;2022-08-06T14:19:47;6.00;;;4.90;;
8281;SDS011;25606;42.686;23.136;2022-08-06T14:22:14;8.50;;;5.18;;
8281;SDS011;25606;42.686;23.136;2022-08-06T14:24:43;10.60;;;5.82;;
8281;SDS011;25606;42.686;23.136;2022-08-06T14:27:10;11.57;;;6.30;;
8281;SDS011;25606;42.686;23.136;2022-08-06T14:29:38;10.30;;;6.10;;
8281;SDS011;25606;42.686;23.136;2022-08-06T14:32:06;8.35;;;5.53;;
8281;SDS011;25606;42.686;23.136;2022-08-06T14:34:33;9.95;;;5.85;;
8281;SDS011;25606;42.686;23.136;2022-08-06T14:37:01;8.02;;;5.50;;
8281;SDS011;25606;42.686;23.136;2022-08-06T14:39:28;7.35;;;5.43;;
8281;SDS011;25606;42.686;23.136;2022-08-06T14:41:57;8.43;;;6.00;;
8281;SDS011;25606;42.686;23.136;2022-08-06T14:44:42;8.75;;;5.50;;
8281;SDS011;25606;42.686;23.136;2022-08-06T14:47:22;10.70;;;6.00;;
8281;SDS011;25606;42.686;23.136;2022-08-06T14:49:50;20.42;;;10.07;;
8281;SDS011;25606;42.686;23.136;2022-08-06T14:52:17;18.65;;;15.77;;
8281;SDS011;25606;42.686;23.136;2022-08-06T14:54:44;20.80;;;18.45;;
8281;SDS011;25606;42.686;23.136;2022-08-06T14:57:13;14.68;;;7.57;;
8281;SDS011;25606;42.686;23.136;2022-08-06T14:59:40;13.07;;;8.48;;
8281;SDS011;25606;42.686;23.136;2022-08-06T15:02:08;10.52;;;6.10;;
8281;SDS011;25606;42.686;23.136;2022-08-06T15:04:36;10.02;;;5.43;;
8281;SDS011;25606;42.686;23.136;2022-08-06T15:07:04;8.32;;;6.05;;
8281;SDS011;25606;42.686;23.136;2022-08-06T15:09:31;7.18;;;5.05;;
8281;SDS011;25606;42.686;23.136;2022-08-06T15:11:58;6.07;;;5.15;;